sensor_id;sensor_type;location;lat;lon;timestamp;pressure;altitude;pressure_sealevel;temperature;humidity
61740;BME280;47645;45.288;12.038;2023-04-01T00:04:16;1003.701061000007;;;12.0580078125;89.3496024571929
61740;BME280;47645;45.288;12.038;2023-04-01T00:14:15;1003.6707961892776;;;11.9458984375;91.14046075942021
61740;BME280;47645;45.288;12.038;2023-04-01T00:24:17;1003.6183756228336;;;11.670703125;100
61740;BME280;47645;45.288;12.038;2023-04-01T00:34:17;1003.5190206559138;;;11.390234375;98.5704480525127
61740;BME280;47645;45.288;12.038;2023-04-01T00:44:21;1003.5680230581797;;;11.36484375;99.5450882041028
61740;BME280;47645;45.288;12.038;2023-04-01T00:54:21;1003.5463098564975;;;11.2375;100
61740;BME280;47645;45.288;12.038;2023-04-01T01:04:23;1003.5634564646921;;;11.0845703125;100
61740;BME280;47645;45.288;12.038;2023-04-01T01:14:28;1003.4337489641428;;;11.18125;95.36396489175667
61740;BME280;47645;45.288;12.038;2023-04-01T01:24:32;1003.40953484336;;;10.95703125;96.3301221410926
61740;BME280;47645;45.288;12.038;2023-04-01T01:34:23;1003.4986203443115;;;10.4984375;100
61740;BME280;47645;45.288;12.038;2023-04-01T01:44:24;1003.5022333699785;;;10.4322265625;100
61740;BME280;47645;45.288;12.038;2023-04-01T01:54:23;1003.5430354742149;;;9.9123046875;100
61740;BME280;47645;45.288;12.038;2023-04-01T02:04:24;1003.5580615389719;;;9.85625;100
61740;BME280;47645;45.288;12.038;2023-04-01T02:14:28;1003.6333386033382;;;9.6115234375;100
61740;BME280;47645;45.288;12.038;2023-04-01T02:29:26;1003.7524713510129;;;9.8357421875;100
61740;BME280;47645;45.288;12.038;2023-04-01T02:34:26;1003.6786792475302;;;9.7236328125;100
61740;BME280;47645;45.288;12.038;2023-04-01T02:44:27;1003.6143153013227;;;10.3251953125;100
61740;BME280;47645;45.288;12.038;2023-04-01T02:54:28;1003.4793463479108;;;10.309765625;96.44944327453831
61740;BME280;47645;45.288;12.038;2023-04-01T03:04:28;1003.6537405428833;;;10.7736328125;90.04653100754427
61740;BME280;47645;45.288;12.038;2023-04-01T03:14:29;1003.7105924998759;;;10.6462890625;94.06816770353889
61740;BME280;47645;45.288;12.038;2023-04-01T03:24:30;1003.7624508829444;;;10.0447265625;100
61740;BME280;47645;45.288;12.038;2023-04-01T03:34:31;1003.6042794108669;;;10.62578125;88.66836587144371
61740;BME280;47645;45.288;12.038;2023-04-01T03:44:31;1003.6331758013763;;;10.5900390625;88.52270802644642
61740;BME280;47645;45.288;12.038;2023-04-01T03:54:32;1003.5769732344421;;;10.51875;87.04105406537587
61740;BME280;47645;45.288;12.038;2023-04-01T04:04:32;1003.5874824091628;;;10.386328125;87.12464396640253
61740;BME280;47645;45.288;12.038;2023-04-01T04:14:33;1003.7076895685216;;;10.3404296875;86.96513492479964
61740;BME280;47645;45.288;12.038;2023-04-01T04:24:34;1003.8176786428603;;;10.2333984375;87.72814387535566
61740;BME280;47645;45.288;12.038;2023-04-01T04:34:34;1003.8740437502555;;;9.8255859375;89.49798205705028
61740;BME280;47645;45.288;12.038;2023-04-01T04:44:35;1003.8892724930027;;;9.8970703125;88.59487590358083
61740;BME280;47645;45.288;12.038;2023-04-01T04:54:35;1004.0079026120779;;;9.948046875;89.22516017141908
61740;BME280;47645;45.288;12.038;2023-04-01T05:04:36;1004.2781078921122;;;9.8357421875;87.9468763063407
61740;BME280;47645;45.288;12.038;2023-04-01T05:14:36;1004.3276937719625;;;9.98359375;87.25625307012265
61740;BME280;47645;45.288;12.038;2023-04-01T05:24:37;1004.384407130744;;;9.9173828125;87.82970851659923
61740;BME280;47645;45.288;12.038;2023-04-01T05:34:37;1004.4930359314272;;;9.8970703125;88.16271107481792
61740;BME280;47645;45.288;12.038;2023-04-01T05:44:38;1004.4584291903557;;;10.0041015625;86.16480779281325
61740;BME280;47645;45.288;12.038;2023-04-01T05:54:39;1004.5589032903227;;;10.1162109375;85.66764221103273
61740;BME280;47645;45.288;12.038;2023-04-01T06:04:40;1004.7308333796792;;;10.1875;86.87549806368322
61740;BME280;47645;45.288;12.038;2023-04-01T06:14:48;1004.8667451679063;;;10.3658203125;85.48454017861623
61740;BME280;47645;45.288;12.038;2023-04-01T06:24:53;1004.8926352153567;;;10.4984375;86.06266246706156
61740;BME280;47645;45.288;12.038;2023-04-01T06:34:56;1004.922319665447;;;10.727734375;84.53796080622976
61740;BME280;47645;45.288;12.038;2023-04-01T06:44:50;1004.9412352457371;;;10.941796875;84.91451993969967
61740;BME280;47645;45.288;12.038;2023-04-01T06:54:47;1005.042964953674;;;11.028515625;83.85326749576127
61740;BME280;47645;45.288;12.038;2023-04-01T07:04:46;1005.0342087390668;;;11.2119140625;92.07747014290368
61740;BME280;47645;45.288;12.038;2023-04-01T07:14:45;1005.173639203313;;;11.2935546875;85.0087393385381
61740;BME280;47645;45.288;12.038;2023-04-01T07:24:46;1005.1819099980765;;;11.5177734375;91.43237961491224
61740;BME280;47645;45.288;12.038;2023-04-01T07:34:55;1005.3165837695083;;;11.6603515625;94.47480043675282
61740;BME280;47645;45.288;12.038;2023-04-01T07:44:52;1005.5212413043125;;;11.787890625;91.17747001554808
61740;BME280;47645;45.288;12.038;2023-04-01T07:54:50;1005.4801494388032;;;11.8541015625;93.48134834940838
61740;BME280;47645;45.288;12.038;2023-04-01T08:04:56;1005.4631844037092;;;12.02734375;92.23817217239673
61740;BME280;47645;45.288;12.038;2023-04-01T08:14:56;1005.5250329324257;;;12.3638671875;100
61740;BME280;47645;45.288;12.038;2023-04-01T08:24:51;1005.4459872683182;;;12.57265625;98.84050667338572
61740;BME280;47645;45.288;12.038;2023-04-01T08:35:08;1005.3718249041714;;;12.654296875;95.85075654293732
61740;BME280;47645;45.288;12.038;2023-04-01T08:45:15;1005.2774246048655;;;13.3525390625;92.1986746734813
61740;BME280;47645;45.288;12.038;2023-04-01T08:55:09;1005.3202564337525;;;13.597265625;88.04171085012328
61740;BME280;47645;45.288;12.038;2023-04-01T09:15:05;1005.5382226599877;;;14.22421875;85.28614692234936
61740;BME280;47645;45.288;12.038;2023-04-01T09:26:08;1005.5412332354281;;;14.6369140625;81.78907940068302
61740;BME280;47645;45.288;12.038;2023-04-01T09:35:03;1005.4774180549158;;;15.2384765625;80.60638510450495
61740;BME280;47645;45.288;12.038;2023-04-01T09:44:59;1005.4613083518956;;;15.6716796875;79.16114198197397
61740;BME280;47645;45.288;12.038;2023-04-01T09:55:06;1005.4302005668601;;;16.349609375;77.02282384415864
61740;BME280;47645;45.288;12.038;2023-04-01T10:05:20;1005.3500221100575;;;17.226171875;70.7039827299126
61740;BME280;47645;45.288;12.038;2023-04-01T10:15:20;1005.2714952665833;;;18.0876953125;66.95960069153911
61740;BME280;47645;45.288;12.038;2023-04-01T10:25:10;1005.1720738284887;;;18.9337890625;65.85395460316117
61740;BME280;47645;45.288;12.038;2023-04-01T10:35:20;1005.1882061383271;;;20.0091796875;60.396628785639194
61740;BME280;47645;45.288;12.038;2023-04-01T10:45:17;1005.0469279471049;;;20.870703125;56.3825893667574
61740;BME280;47645;45.288;12.038;2023-04-01T10:55:25;1004.9617358718818;;;21.385546875;53.37056914812593
61740;BME280;47645;45.288;12.038;2023-04-01T11:05:54;1004.9319137285436;;;22.144921875;51.1644101903709
61740;BME280;47645;45.288;12.038;2023-04-01T11:20:19;1004.8497311818484;;;22.6955078125;49.06566079859372
61740;BME280;47645;45.288;12.038;2023-04-01T11:30:19;1004.8225468422719;;;23.7251953125;50.8913664179698
61740;BME280;47645;45.288;12.038;2023-04-01T11:40:19;1004.858531404562;;;24.076953125;47.88574247861121
61740;BME280;47645;45.288;12.038;2023-04-01T11:50:18;1004.7528591480122;;;24.39296875;43.807454345473
61740;BME280;47645;45.288;12.038;2023-04-01T12:00:22;1004.7694512929196;;;24.2603515625;44.58168361699321
61740;BME280;47645;45.288;12.038;2023-04-01T12:10:18;1004.7125425236034;;;24.51015625;45.17989609208393
61740;BME280;47645;45.288;12.038;2023-04-01T12:20:25;1004.5541483092125;;;24.93828125;43.550542858982425
61740;BME280;47645;45.288;12.038;2023-04-01T12:30:37;1004.5842431039912;;;25.4787109375;47.66490282430974
61740;BME280;47645;45.288;12.038;2023-04-01T12:40:26;1004.5715064833759;;;25.310546875;47.70859533283347
61740;BME280;47645;45.288;12.038;2023-04-01T12:50:26;1004.5340971322469;;;24.912890625;47.632981103845054
61740;BME280;47645;45.288;12.038;2023-04-01T13:00:31;1004.5492791529576;;;25.121875;46.08992393123285
61740;BME280;47645;45.288;12.038;2023-04-01T13:10:29;1004.540182670237;;;25.509375;47.306047119089065
61740;BME280;47645;45.288;12.038;2023-04-01T13:20:30;1004.431981706351;;;25.0658203125;46.361541348785046
61740;BME280;47645;45.288;12.038;2023-04-01T13:30:27;1004.3729379884635;;;25.40234375;46.30764250661887
61740;BME280;47645;45.288;12.038;2023-04-01T13:40:33;1004.2560721001034;;;25.310546875;48.594554252497204
61740;BME280;47645;45.288;12.038;2023-04-01T13:50:34;1004.2467684309112;;;25.2900390625;47.337554844902414
61740;BME280;47645;45.288;12.038;2023-04-01T14:00:36;1004.251803613183;;;25.5603515625;47.63144781870704
61740;BME280;47645;45.288;12.038;2023-04-01T14:10:33;1004.1952651783893;;;25.840625;47.780584185939325
61740;BME280;47645;45.288;12.038;2023-04-01T14:20:36;1004.1873146091706;;;25.6009765625;46.54774365720223
61740;BME280;47645;45.288;12.038;2023-04-01T14:30:41;1004.0782741421707;;;25.71328125;47.43059662048165
61740;BME280;47645;45.288;12.038;2023-04-01T14:40:49;1003.9075692837698;;;25.121875;45.09904779293256
61740;BME280;47645;45.288;12.038;2023-04-01T14:50:42;1003.849310055733;;;25.3615234375;48.04528322926437
61740;BME280;47645;45.288;12.038;2023-04-01T15:00:47;1003.7772781604882;;;25.4736328125;48.60897656235685
61740;BME280;47645;45.288;12.038;2023-04-01T15:10:47;1003.7218582260457;;;25.233984375;46.989118166044406
61740;BME280;47645;45.288;12.038;2023-04-01T15:20:54;1003.5815558917066;;;25.03515625;48.56098991324774
61740;BME280;47645;45.288;12.038;2023-04-01T15:30:48;1003.5140810543189;;;24.902734375;48.905805377266695
61740;BME280;47645;45.288;12.038;2023-04-01T15:40:44;1003.3801599732557;;;24.4541015625;50.185910605211625
61740;BME280;47645;45.288;12.038;2023-04-01T15:50:50;1003.4065056382454;;;24.087109375;51.10739088952318
61740;BME280;47645;45.288;12.038;2023-04-01T16:00:45;1003.3249743213995;;;23.65390625;52.59014529021143
61740;BME280;47645;45.288;12.038;2023-04-01T16:10:52;1003.454116965627;;;22.970703125;52.84773678818849
61740;BME280;47645;45.288;12.038;2023-04-01T16:20:51;1003.3900271066803;;;22.1705078125;53.87606499353742
61740;BME280;47645;45.288;12.038;2023-04-01T16:30:48;1003.4312817007026;;;21.6658203125;58.42817961623386
61740;BME280;47645;45.288;12.038;2023-04-01T16:40:53;1003.5156725536406;;;20.850390625;57.639630927574245
61740;BME280;47645;45.288;12.038;2023-04-01T16:50:54;1003.5537778102588;;;19.6779296875;58.46519121376306
61740;BME280;47645;45.288;12.038;2023-04-01T17:00:53;1003.4809428923878;;;19.733984375;61.0268249545059
61740;BME280;47645;45.288;12.038;2023-04-01T17:10:53;1003.5808662771877;;;19.285546875;62.639028321443824
61740;BME280;47645;45.288;12.038;2023-04-01T17:20:55;1003.8692629995583;;;18.5921875;63.52261488960242
61740;BME280;47645;45.288;12.038;2023-04-01T17:30:57;1003.9855379073971;;;18.148828125;67.18474983350407
61740;BME280;47645;45.288;12.038;2023-04-01T17:41:00;1004.1650277285381;;;17.6390625;69.01425073934608
61740;BME280;47645;45.288;12.038;2023-04-01T17:51:07;1004.1850374017022;;;17.2669921875;71.39079168177317
61740;BME280;47645;45.288;12.038;2023-04-01T18:01:05;1004.3285107035703;;;17.022265625;72.50229935593293
61740;BME280;47645;45.288;12.038;2023-04-01T18:11:04;1004.3149673769465;;;16.57890625;73.73641539966778
61740;BME280;47645;45.288;12.038;2023-04-01T18:21:02;1004.4213039391575;;;16.390234375;74.51102463711491
61740;BME280;47645;45.288;12.038;2023-04-01T18:31:06;1004.4682784678057;;;16.1099609375;75.7586737328308
61740;BME280;47645;45.288;12.038;2023-04-01T18:41:11;1004.5968791309712;;;15.7736328125;76.43420098159338
61740;BME280;47645;45.288;12.038;2023-04-01T18:51:11;1004.691326204495;;;15.5544921875;76.71421138167142
61740;BME280;47645;45.288;12.038;2023-04-01T19:01:11;1004.67304805201;;;15.4015625;77.26871530363401
61740;BME280;47645;45.288;12.038;2023-04-01T19:11:09;1004.7815543294855;;;15.1771484375;77.19780301117554
61740;BME280;47645;45.288;12.038;2023-04-01T19:21:10;1004.8080302989864;;;15.1875;77.23797015167541
61740;BME280;47645;45.288;12.038;2023-04-01T19:31:11;1004.9292775373028;;;14.9326171875;77.79300342839703
61740;BME280;47645;45.288;12.038;2023-04-01T19:41:19;1004.989844404885;;;14.7236328125;78.37603347860095
61740;BME280;47645;45.288;12.038;2023-04-01T19:51:09;1005.1035331344573;;;14.687890625;78.2033372331852
61740;BME280;47645;45.288;12.038;2023-04-01T20:01:09;1005.1693933466786;;;14.3873046875;78.92673996245166
61740;BME280;47645;45.288;12.038;2023-04-01T20:11:17;1005.2492650850741;;;14.4228515625;78.66030196552768
61740;BME280;47645;45.288;12.038;2023-04-01T20:21:20;1005.1684553780167;;;14.3873046875;78.26463454133841
61740;BME280;47645;45.288;12.038;2023-04-01T20:31:28;1005.2158400922622;;;14.269921875;78.37955570843012
61740;BME280;47645;45.288;12.038;2023-04-01T20:41:11;1005.1709891472565;;;14.1783203125;79.11470345701142
61740;BME280;47645;45.288;12.038;2023-04-01T20:51:14;1005.2573620989076;;;14.0763671875;78.92771433945096
61740;BME280;47645;45.288;12.038;2023-04-01T21:01:15;1005.2930023590199;;;14.0865234375;79.09556368965674
61740;BME280;47645;45.288;12.038;2023-04-01T21:11:18;1005.3014854976766;;;14.0203125;78.41719669066643
61740;BME280;47645;45.288;12.038;2023-04-01T21:31:24;1005.4472332976712;;;13.7755859375;78.72591441410427
61740;BME280;47645;45.288;12.038;2023-04-01T21:41:25;1005.3974215658744;;;13.6634765625;78.68214391139941
61740;BME280;47645;45.288;12.038;2023-04-01T21:52:09;1005.4895707074331;;;13.587109375;78.65839300407735
61740;BME280;47645;45.288;12.038;2023-04-01T22:01:43;1005.5380416285341;;;12.8123046875;84.09546881689764
61740;BME280;47645;45.288;12.038;2023-04-01T22:11:31;1005.6017238916149;;;12.848046875;83.27967213270513
61740;BME280;47645;45.288;12.038;2023-04-01T22:21:26;1005.7202279217994;;;12.3994140625;88.32243583854289
61740;BME280;47645;45.288;12.038;2023-04-01T22:31:23;1005.9220284487835;;;12.2771484375;87.59839514073909
61740;BME280;47645;45.288;12.038;2023-04-01T22:41:25;1005.9050501489394;;;11.6248046875;100
61740;BME280;47645;45.288;12.038;2023-04-01T22:51:23;1006.083182016546;;;11.1966796875;100
61740;BME280;47645;45.288;12.038;2023-04-01T23:01:24;1005.8787180571136;;;11.2986328125;100
61740;BME280;47645;45.288;12.038;2023-04-01T23:11:25;1005.8598737081032;;;11.1048828125;100
61740;BME280;47645;45.288;12.038;2023-04-01T23:21:28;1005.7574985225334;;;11.145703125;100
61740;BME280;47645;45.288;12.038;2023-04-01T23:31:34;1005.7141944222095;;;11.38515625;100
61740;BME280;47645;45.288;12.038;2023-04-01T23:41:27;1005.8826843422585;;;11.4158203125;100
61740;BME280;47645;45.288;12.038;2023-04-01T23:51:27;1005.9088638331617;;;11.7521484375;100
